Burnt Prairie, Illinois
Current Conditions -  °F | °C
As of 4:15 AM on Monday 26 Jan 2015 (Local Time) from KFWC Reporting Station
Overcast Overcast  
Wind Chill: 22°   Ceiling: 1500
Heat Index: 31°   Visibility: 10mi
Dew Point: 26°   Wind: 12mph
Humidity: 81%   Direction: 330°NNW
Pressure: 29.97"   Gusts: 16mph
Location:  38.25°N, 88.26°W
Report Text: KFWC 261015Z AUTO 33010G14KT 10SM OVC015 M01/M03 A2997 RMK AO1 T10061035
Loading
Personal Weather Stations






























Interactive Weather Map New forecast layout! Learn more

10-Day Weather Forecast

Advertisements
Track Severe Weather on mobile